sensor_id;sensor_type;location;lat;lon;timestamp;P1;durP1;ratioP1;P2;durP2;ratioP2
15502;SDS011;7853;52.186;5.948;2022-07-22T00:03:15;9.60;;;2.75;;
15502;SDS011;7853;52.186;5.948;2022-07-22T00:03:47;8.50;;;2.86;;
15502;SDS011;7853;52.186;5.948;2022-07-22T00:04:47;7.71;;;2.78;;
15502;SDS011;7853;52.186;5.948;2022-07-22T00:05:47;10.25;;;2.86;;
15502;SDS011;7853;52.186;5.948;2022-07-22T00:07:34;6.60;;;2.96;;
15502;SDS011;7853;52.186;5.948;2022-07-22T00:08:34;9.31;;;2.68;;
15502;SDS011;7853;52.186;5.948;2022-07-22T00:09:34;7.30;;;2.55;;
15502;SDS011;7853;52.186;5.948;2022-07-22T00:10:35;12.43;;;2.85;;
15502;SDS011;7853;52.186;5.948;2022-07-22T00:11:35;8.27;;;3.28;;
15502;SDS011;7853;52.186;5.948;2022-07-22T00:12:35;6.80;;;2.94;;
15502;SDS011;7853;52.186;5.948;2022-07-22T00:13:35;9.90;;;3.23;;
15502;SDS011;7853;52.186;5.948;2022-07-22T00:14:35;7.15;;;2.90;;
15502;SDS011;7853;52.186;5.948;2022-07-22T00:15:35;9.78;;;3.03;;
15502;SDS011;7853;52.186;5.948;2022-07-22T00:16:35;7.99;;;3.02;;
15502;SDS011;7853;52.186;5.948;2022-07-22T00:17:35;11.89;;;2.79;;
15502;SDS011;7853;52.186;5.948;2022-07-22T00:18:35;7.79;;;2.86;;
15502;SDS011;7853;52.186;5.948;2022-07-22T00:19:35;7.68;;;2.86;;
15502;SDS011;7853;52.186;5.948;2022-07-22T00:20:35;7.27;;;2.97;;
15502;SDS011;7853;52.186;5.948;2022-07-22T00:21:35;8.18;;;3.40;;
15502;SDS011;7853;52.186;5.948;2022-07-22T00:22:35;8.74;;;3.08;;
15502;SDS011;7853;52.186;5.948;2022-07-22T00:23:35;8.27;;;2.97;;
15502;SDS011;7853;52.186;5.948;2022-07-22T00:24:35;9.16;;;3.01;;
15502;SDS011;7853;52.186;5.948;2022-07-22T00:25:35;9.61;;;2.77;;
15502;SDS011;7853;52.186;5.948;2022-07-22T00:26:36;11.02;;;3.06;;
15502;SDS011;7853;52.186;5.948;2022-07-22T00:27:36;8.66;;;2.85;;
15502;SDS011;7853;52.186;5.948;2022-07-22T00:28:36;9.62;;;3.24;;
15502;SDS011;7853;52.186;5.948;2022-07-22T00:29:36;8.26;;;3.00;;
15502;SDS011;7853;52.186;5.948;2022-07-22T00:30:36;8.63;;;3.43;;
15502;SDS011;7853;52.186;5.948;2022-07-22T00:31:36;6.45;;;2.79;;
15502;SDS011;7853;52.186;5.948;2022-07-22T00:32:36;10.59;;;3.32;;
15502;SDS011;7853;52.186;5.948;2022-07-22T00:33:36;11.20;;;3.03;;
15502;SDS011;7853;52.186;5.948;2022-07-22T00:34:36;7.02;;;3.00;;
15502;SDS011;7853;52.186;5.948;2022-07-22T00:35:36;7.21;;;3.25;;
15502;SDS011;7853;52.186;5.948;2022-07-22T00:36:36;8.05;;;3.05;;
15502;SDS011;7853;52.186;5.948;2022-07-22T00:37:36;9.38;;;3.22;;
15502;SDS011;7853;52.186;5.948;2022-07-22T00:38:37;6.61;;;2.92;;
15502;SDS011;7853;52.186;5.948;2022-07-22T00:39:36;8.81;;;2.83;;
15502;SDS011;7853;52.186;5.948;2022-07-22T00:40:36;9.39;;;3.51;;
15502;SDS011;7853;52.186;5.948;2022-07-22T00:41:36;9.53;;;3.19;;
15502;SDS011;7853;52.186;5.948;2022-07-22T00:42:37;7.04;;;2.99;;
15502;SDS011;7853;52.186;5.948;2022-07-22T00:43:53;8.21;;;3.23;;
15502;SDS011;7853;52.186;5.948;2022-07-22T00:44:37;9.01;;;2.98;;
15502;SDS011;7853;52.186;5.948;2022-07-22T00:45:37;7.36;;;3.05;;
15502;SDS011;7853;52.186;5.948;2022-07-22T00:46:37;8.61;;;3.23;;
15502;SDS011;7853;52.186;5.948;2022-07-22T00:47:37;6.13;;;3.03;;
15502;SDS011;7853;52.186;5.948;2022-07-22T00:48:37;6.37;;;2.91;;
15502;SDS011;7853;52.186;5.948;2022-07-22T00:49:37;7.09;;;2.91;;
15502;SDS011;7853;52.186;5.948;2022-07-22T00:50:37;10.30;;;3.36;;
15502;SDS011;7853;52.186;5.948;2022-07-22T00:51:37;8.81;;;3.46;;
15502;SDS011;7853;52.186;5.948;2022-07-22T00:52:37;8.76;;;3.19;;
15502;SDS011;7853;52.186;5.948;2022-07-22T00:53:37;7.15;;;3.03;;
15502;SDS011;7853;52.186;5.948;2022-07-22T00:54:37;7.25;;;2.97;;
15502;SDS011;7853;52.186;5.948;2022-07-22T00:55:37;6.68;;;3.02;;
15502;SDS011;7853;52.186;5.948;2022-07-22T00:56:37;8.93;;;3.37;;
15502;SDS011;7853;52.186;5.948;2022-07-22T00:57:37;7.72;;;2.85;;
15502;SDS011;7853;52.186;5.948;2022-07-22T00:58:37;5.84;;;2.80;;
15502;SDS011;7853;52.186;5.948;2022-07-22T01:00:48;7.01;;;3.04;;
15502;SDS011;7853;52.186;5.948;2022-07-22T01:01:48;9.47;;;2.96;;
15502;SDS011;7853;52.186;5.948;2022-07-22T01:03:32;7.83;;;3.09;;
15502;SDS011;7853;52.186;5.948;2022-07-22T01:04:32;7.89;;;3.08;;
15502;SDS011;7853;52.186;5.948;2022-07-22T01:05:32;7.89;;;3.12;;
15502;SDS011;7853;52.186;5.948;2022-07-22T01:06:32;7.30;;;3.10;;
15502;SDS011;7853;52.186;5.948;2022-07-22T01:07:32;7.04;;;3.13;;
15502;SDS011;7853;52.186;5.948;2022-07-22T01:08:32;6.78;;;2.97;;
15502;SDS011;7853;52.186;5.948;2022-07-22T01:09:32;6.81;;;3.35;;
15502;SDS011;7853;52.186;5.948;2022-07-22T01:10:33;7.14;;;3.00;;
15502;SDS011;7853;52.186;5.948;2022-07-22T01:11:33;6.97;;;3.01;;
15502;SDS011;7853;52.186;5.948;2022-07-22T01:12:33;7.79;;;3.35;;
15502;SDS011;7853;52.186;5.948;2022-07-22T01:13:33;7.54;;;3.42;;
15502;SDS011;7853;52.186;5.948;2022-07-22T01:14:33;7.22;;;3.58;;
15502;SDS011;7853;52.186;5.948;2022-07-22T01:15:33;5.73;;;3.25;;
15502;SDS011;7853;52.186;5.948;2022-07-22T01:16:33;5.98;;;3.06;;
15502;SDS011;7853;52.186;5.948;2022-07-22T01:17:33;7.47;;;3.14;;
15502;SDS011;7853;52.186;5.948;2022-07-22T01:18:33;5.12;;;3.28;;
15502;SDS011;7853;52.186;5.948;2022-07-22T01:19:34;7.47;;;3.40;;
15502;SDS011;7853;52.186;5.948;2022-07-22T01:20:34;6.54;;;3.39;;
15502;SDS011;7853;52.186;5.948;2022-07-22T01:21:33;7.19;;;3.16;;
15502;SDS011;7853;52.186;5.948;2022-07-22T01:22:33;6.30;;;3.15;;
15502;SDS011;7853;52.186;5.948;2022-07-22T01:23:33;7.38;;;3.47;;
15502;SDS011;7853;52.186;5.948;2022-07-22T01:24:33;7.75;;;3.38;;
15502;SDS011;7853;52.186;5.948;2022-07-22T01:25:33;7.67;;;3.37;;
15502;SDS011;7853;52.186;5.948;2022-07-22T01:26:33;4.90;;;2.91;;
15502;SDS011;7853;52.186;5.948;2022-07-22T01:27:33;7.27;;;3.57;;
15502;SDS011;7853;52.186;5.948;2022-07-22T01:28:34;8.75;;;3.44;;
15502;SDS011;7853;52.186;5.948;2022-07-22T01:29:34;9.57;;;3.47;;
15502;SDS011;7853;52.186;5.948;2022-07-22T01:30:34;5.86;;;3.31;;
15502;SDS011;7853;52.186;5.948;2022-07-22T01:31:34;7.23;;;3.26;;
15502;SDS011;7853;52.186;5.948;2022-07-22T01:32:34;7.92;;;3.32;;
15502;SDS011;7853;52.186;5.948;2022-07-22T01:33:34;8.92;;;3.52;;
15502;SDS011;7853;52.186;5.948;2022-07-22T01:34:34;9.52;;;3.45;;
15502;SDS011;7853;52.186;5.948;2022-07-22T01:35:34;5.90;;;2.93;;
15502;SDS011;7853;52.186;5.948;2022-07-22T01:36:34;7.32;;;3.42;;
15502;SDS011;7853;52.186;5.948;2022-07-22T01:37:34;6.95;;;3.55;;
15502;SDS011;7853;52.186;5.948;2022-07-22T01:38:34;8.21;;;3.62;;
15502;SDS011;7853;52.186;5.948;2022-07-22T01:39:34;8.82;;;3.33;;
15502;SDS011;7853;52.186;5.948;2022-07-22T01:40:34;5.71;;;3.56;;
15502;SDS011;7853;52.186;5.948;2022-07-22T01:41:34;6.84;;;3.24;;
15502;SDS011;7853;52.186;5.948;2022-07-22T01:42:34;7.71;;;3.55;;
15502;SDS011;7853;52.186;5.948;2022-07-22T01:43:34;8.22;;;3.43;;
15502;SDS011;7853;52.186;5.948;2022-07-22T01:44:34;9.31;;;4.03;;
15502;SDS011;7853;52.186;5.948;2022-07-22T01:45:35;6.35;;;3.17;;
15502;SDS011;7853;52.186;5.948;2022-07-22T01:46:35;7.89;;;3.50;;
15502;SDS011;7853;52.186;5.948;2022-07-22T01:47:35;8.74;;;3.39;;
15502;SDS011;7853;52.186;5.948;2022-07-22T01:48:35;7.16;;;3.48;;
15502;SDS011;7853;52.186;5.948;2022-07-22T01:49:35;9.11;;;3.90;;
15502;SDS011;7853;52.186;5.948;2022-07-22T01:50:35;5.97;;;3.41;;
15502;SDS011;7853;52.186;5.948;2022-07-22T01:51:35;7.08;;;3.38;;
15502;SDS011;7853;52.186;5.948;2022-07-22T01:52:35;7.78;;;3.42;;
15502;SDS011;7853;52.186;5.948;2022-07-22T01:53:35;8.07;;;3.52;;
15502;SDS011;7853;52.186;5.948;2022-07-22T01:54:35;7.13;;;3.13;;
15502;SDS011;7853;52.186;5.948;2022-07-22T01:55:35;7.79;;;3.25;;
15502;SDS011;7853;52.186;5.948;2022-07-22T01:57:47;6.50;;;3.29;;
15502;SDS011;7853;52.186;5.948;2022-07-22T01:58:47;7.40;;;3.35;;
15502;SDS011;7853;52.186;5.948;2022-07-22T01:59:47;7.85;;;3.51;;
15502;SDS011;7853;52.186;5.948;2022-07-22T02:00:47;6.04;;;3.33;;
15502;SDS011;7853;52.186;5.948;2022-07-22T02:01:47;6.66;;;3.52;;
15502;SDS011;7853;52.186;5.948;2022-07-22T02:02:47;7.68;;;3.36;;
15502;SDS011;7853;52.186;5.948;2022-07-22T02:03:47;6.82;;;3.04;;
15502;SDS011;7853;52.186;5.948;2022-07-22T02:04:47;5.53;;;3.24;;
15502;SDS011;7853;52.186;5.948;2022-07-22T02:05:47;7.31;;;3.39;;
15502;SDS011;7853;52.186;5.948;2022-07-22T02:06:47;9.47;;;3.64;;
15502;SDS011;7853;52.186;5.948;2022-07-22T02:07:47;6.78;;;3.45;;
15502;SDS011;7853;52.186;5.948;2022-07-22T02:08:47;9.30;;;3.22;;
15502;SDS011;7853;52.186;5.948;2022-07-22T02:09:47;8.28;;;3.55;;
15502;SDS011;7853;52.186;5.948;2022-07-22T02:10:48;7.33;;;3.08;;
15502;SDS011;7853;52.186;5.948;2022-07-22T02:11:48;9.22;;;3.63;;
15502;SDS011;7853;52.186;5.948;2022-07-22T02:12:48;7.23;;;3.93;;
15502;SDS011;7853;52.186;5.948;2022-07-22T02:13:48;6.53;;;3.23;;
15502;SDS011;7853;52.186;5.948;2022-07-22T02:14:48;10.87;;;4.15;;
15502;SDS011;7853;52.186;5.948;2022-07-22T02:15:48;7.03;;;3.77;;
15502;SDS011;7853;52.186;5.948;2022-07-22T02:16:48;9.17;;;3.77;;
15502;SDS011;7853;52.186;5.948;2022-07-22T02:17:48;6.81;;;3.46;;
15502;SDS011;7853;52.186;5.948;2022-07-22T02:18:48;7.38;;;3.69;;
15502;SDS011;7853;52.186;5.948;2022-07-22T02:19:48;6.71;;;3.51;;
15502;SDS011;7853;52.186;5.948;2022-07-22T02:20:48;9.21;;;3.97;;
15502;SDS011;7853;52.186;5.948;2022-07-22T02:21:48;7.10;;;3.47;;
15502;SDS011;7853;52.186;5.948;2022-07-22T02:22:48;6.21;;;3.76;;
15502;SDS011;7853;52.186;5.948;2022-07-22T02:23:48;8.31;;;3.43;;
15502;SDS011;7853;52.186;5.948;2022-07-22T02:24:48;8.19;;;3.56;;
15502;SDS011;7853;52.186;5.948;2022-07-22T02:25:48;5.93;;;3.17;;
15502;SDS011;7853;52.186;5.948;2022-07-22T02:26:48;7.88;;;3.61;;
15502;SDS011;7853;52.186;5.948;2022-07-22T02:27:48;6.46;;;3.32;;
15502;SDS011;7853;52.186;5.948;2022-07-22T02:28:48;7.10;;;3.43;;
15502;SDS011;7853;52.186;5.948;2022-07-22T02:29:49;5.69;;;3.08;;
15502;SDS011;7853;52.186;5.948;2022-07-22T02:30:49;7.13;;;3.18;;
15502;SDS011;7853;52.186;5.948;2022-07-22T02:31:49;7.83;;;3.65;;
15502;SDS011;7853;52.186;5.948;2022-07-22T02:32:49;8.28;;;3.35;;
15502;SDS011;7853;52.186;5.948;2022-07-22T02:33:49;6.52;;;3.07;;
15502;SDS011;7853;52.186;5.948;2022-07-22T02:34:49;6.06;;;3.07;;
15502;SDS011;7853;52.186;5.948;2022-07-22T02:35:49;8.31;;;3.72;;
15502;SDS011;7853;52.186;5.948;2022-07-22T02:36:49;8.79;;;3.50;;
15502;SDS011;7853;52.186;5.948;2022-07-22T02:37:49;7.96;;;3.53;;
15502;SDS011;7853;52.186;5.948;2022-07-22T02:38:49;7.30;;;3.35;;
15502;SDS011;7853;52.186;5.948;2022-07-22T02:39:49;8.25;;;3.31;;
15502;SDS011;7853;52.186;5.948;2022-07-22T02:40:49;5.27;;;3.25;;
15502;SDS011;7853;52.186;5.948;2022-07-22T02:41:49;10.94;;;4.12;;
15502;SDS011;7853;52.186;5.948;2022-07-22T02:42:49;7.92;;;3.78;;
15502;SDS011;7853;52.186;5.948;2022-07-22T02:43:49;6.74;;;3.59;;
15502;SDS011;7853;52.186;5.948;2022-07-22T02:44:49;7.32;;;3.51;;
15502;SDS011;7853;52.186;5.948;2022-07-22T02:45:49;9.60;;;3.47;;
15502;SDS011;7853;52.186;5.948;2022-07-22T02:46:49;7.48;;;3.67;;
15502;SDS011;7853;52.186;5.948;2022-07-22T02:47:51;5.84;;;3.52;;
15502;SDS011;7853;52.186;5.948;2022-07-22T02:48:50;6.16;;;3.69;;
15502;SDS011;7853;52.186;5.948;2022-07-22T02:49:50;6.60;;;3.06;;
15502;SDS011;7853;52.186;5.948;2022-07-22T02:50:50;6.28;;;3.28;;
15502;SDS011;7853;52.186;5.948;2022-07-22T02:51:50;7.72;;;3.49;;
15502;SDS011;7853;52.186;5.948;2022-07-22T02:52:50;10.50;;;3.62;;
15502;SDS011;7853;52.186;5.948;2022-07-22T02:53:50;10.90;;;3.56;;
15502;SDS011;7853;52.186;5.948;2022-07-22T02:54:50;7.44;;;3.44;;
15502;SDS011;7853;52.186;5.948;2022-07-22T02:55:50;5.76;;;3.28;;
15502;SDS011;7853;52.186;5.948;2022-07-22T02:56:50;7.66;;;3.41;;
15502;SDS011;7853;52.186;5.948;2022-07-22T02:57:50;8.00;;;3.42;;
15502;SDS011;7853;52.186;5.948;2022-07-22T02:58:50;7.75;;;3.21;;
15502;SDS011;7853;52.186;5.948;2022-07-22T02:59:50;7.89;;;3.61;;
15502;SDS011;7853;52.186;5.948;2022-07-22T03:00:50;7.60;;;3.53;;
15502;SDS011;7853;52.186;5.948;2022-07-22T03:03:19;9.59;;;3.56;;
15502;SDS011;7853;52.186;5.948;2022-07-22T03:04:19;6.51;;;3.24;;
15502;SDS011;7853;52.186;5.948;2022-07-22T03:05:19;9.52;;;3.26;;
15502;SDS011;7853;52.186;5.948;2022-07-22T03:06:19;10.08;;;3.34;;
15502;SDS011;7853;52.186;5.948;2022-07-22T03:07:19;8.30;;;3.50;;
15502;SDS011;7853;52.186;5.948;2022-07-22T03:08:19;8.42;;;3.34;;
15502;SDS011;7853;52.186;5.948;2022-07-22T03:09:19;8.40;;;3.50;;
15502;SDS011;7853;52.186;5.948;2022-07-22T03:10:19;8.80;;;3.59;;
15502;SDS011;7853;52.186;5.948;2022-07-22T03:11:19;6.23;;;3.11;;
15502;SDS011;7853;52.186;5.948;2022-07-22T03:12:19;9.84;;;3.26;;
15502;SDS011;7853;52.186;5.948;2022-07-22T03:13:20;7.27;;;3.42;;
15502;SDS011;7853;52.186;5.948;2022-07-22T03:14:20;10.75;;;3.58;;
15502;SDS011;7853;52.186;5.948;2022-07-22T03:15:20;8.66;;;3.35;;
15502;SDS011;7853;52.186;5.948;2022-07-22T03:16:20;9.90;;;3.26;;
15502;SDS011;7853;52.186;5.948;2022-07-22T03:17:20;9.96;;;3.55;;
15502;SDS011;7853;52.186;5.948;2022-07-22T03:18:20;10.25;;;3.46;;
15502;SDS011;7853;52.186;5.948;2022-07-22T03:19:20;9.74;;;3.51;;
15502;SDS011;7853;52.186;5.948;2022-07-22T03:20:20;9.07;;;3.22;;
15502;SDS011;7853;52.186;5.948;2022-07-22T03:21:20;10.99;;;3.87;;
15502;SDS011;7853;52.186;5.948;2022-07-22T03:22:20;7.73;;;3.24;;
15502;SDS011;7853;52.186;5.948;2022-07-22T03:23:20;9.23;;;3.61;;
15502;SDS011;7853;52.186;5.948;2022-07-22T03:24:20;10.49;;;3.49;;
15502;SDS011;7853;52.186;5.948;2022-07-22T03:25:20;9.82;;;3.20;;
15502;SDS011;7853;52.186;5.948;2022-07-22T03:26:20;9.67;;;3.54;;
15502;SDS011;7853;52.186;5.948;2022-07-22T03:27:20;9.78;;;3.51;;
15502;SDS011;7853;52.186;5.948;2022-07-22T03:28:20;8.85;;;3.61;;
15502;SDS011;7853;52.186;5.948;2022-07-22T03:29:20;7.94;;;3.79;;
15502;SDS011;7853;52.186;5.948;2022-07-22T03:30:21;7.38;;;3.06;;
15502;SDS011;7853;52.186;5.948;2022-07-22T03:31:21;9.50;;;3.26;;
15502;SDS011;7853;52.186;5.948;2022-07-22T03:32:21;8.02;;;3.40;;
15502;SDS011;7853;52.186;5.948;2022-07-22T03:33:21;9.40;;;3.88;;
15502;SDS011;7853;52.186;5.948;2022-07-22T03:34:21;7.96;;;3.36;;
15502;SDS011;7853;52.186;5.948;2022-07-22T03:35:21;8.85;;;3.48;;
15502;SDS011;7853;52.186;5.948;2022-07-22T03:36:21;7.33;;;3.56;;
15502;SDS011;7853;52.186;5.948;2022-07-22T03:37:21;8.21;;;3.69;;
15502;SDS011;7853;52.186;5.948;2022-07-22T03:38:21;9.38;;;3.72;;
15502;SDS011;7853;52.186;5.948;2022-07-22T03:39:21;8.26;;;3.55;;
15502;SDS011;7853;52.186;5.948;2022-07-22T03:40:21;7.75;;;3.33;;
15502;SDS011;7853;52.186;5.948;2022-07-22T03:41:21;9.69;;;3.22;;
15502;SDS011;7853;52.186;5.948;2022-07-22T03:42:21;10.32;;;3.72;;
15502;SDS011;7853;52.186;5.948;2022-07-22T03:43:21;8.28;;;3.30;;
15502;SDS011;7853;52.186;5.948;2022-07-22T03:44:21;8.71;;;3.45;;
15502;SDS011;7853;52.186;5.948;2022-07-22T03:45:21;9.12;;;3.67;;
15502;SDS011;7853;52.186;5.948;2022-07-22T03:46:21;8.11;;;3.30;;
15502;SDS011;7853;52.186;5.948;2022-07-22T03:47:22;7.95;;;3.53;;
15502;SDS011;7853;52.186;5.948;2022-07-22T03:48:22;8.11;;;3.90;;
15502;SDS011;7853;52.186;5.948;2022-07-22T03:49:22;8.90;;;3.70;;
15502;SDS011;7853;52.186;5.948;2022-07-22T03:50:22;8.45;;;3.58;;
15502;SDS011;7853;52.186;5.948;2022-07-22T03:51:22;8.46;;;3.71;;
15502;SDS011;7853;52.186;5.948;2022-07-22T03:52:22;12.98;;;4.04;;
15502;SDS011;7853;52.186;5.948;2022-07-22T03:53:22;8.44;;;4.15;;
15502;SDS011;7853;52.186;5.948;2022-07-22T03:54:22;7.22;;;3.39;;
15502;SDS011;7853;52.186;5.948;2022-07-22T03:55:22;7.70;;;3.51;;
15502;SDS011;7853;52.186;5.948;2022-07-22T03:56:22;8.50;;;3.57;;
15502;SDS011;7853;52.186;5.948;2022-07-22T03:57:22;9.60;;;3.59;;
15502;SDS011;7853;52.186;5.948;2022-07-22T03:58:22;11.66;;;3.59;;
15502;SDS011;7853;52.186;5.948;2022-07-22T03:59:22;8.41;;;3.29;;
15502;SDS011;7853;52.186;5.948;2022-07-22T04:00:22;7.10;;;3.69;;
15502;SDS011;7853;52.186;5.948;2022-07-22T04:01:22;8.93;;;3.70;;
15502;SDS011;7853;52.186;5.948;2022-07-22T04:02:22;7.69;;;3.53;;
15502;SDS011;7853;52.186;5.948;2022-07-22T04:03:22;7.85;;;3.44;;
15502;SDS011;7853;52.186;5.948;2022-07-22T04:04:22;7.78;;;3.36;;
15502;SDS011;7853;52.186;5.948;2022-07-22T04:05:22;11.18;;;3.43;;
15502;SDS011;7853;52.186;5.948;2022-07-22T04:06:22;7.98;;;3.78;;
15502;SDS011;7853;52.186;5.948;2022-07-22T04:07:22;8.75;;;3.62;;
15502;SDS011;7853;52.186;5.948;2022-07-22T04:08:22;9.71;;;3.77;;
15502;SDS011;7853;52.186;5.948;2022-07-22T04:09:23;6.73;;;3.55;;
15502;SDS011;7853;52.186;5.948;2022-07-22T04:10:23;8.34;;;3.58;;
15502;SDS011;7853;52.186;5.948;2022-07-22T04:11:23;6.38;;;3.65;;
15502;SDS011;7853;52.186;5.948;2022-07-22T04:12:23;8.18;;;3.65;;
15502;SDS011;7853;52.186;5.948;2022-07-22T04:13:23;9.62;;;3.51;;
15502;SDS011;7853;52.186;5.948;2022-07-22T04:14:23;7.73;;;3.43;;
15502;SDS011;7853;52.186;5.948;2022-07-22T04:15:23;11.14;;;3.87;;
15502;SDS011;7853;52.186;5.948;2022-07-22T04:16:23;8.39;;;3.49;;
15502;SDS011;7853;52.186;5.948;2022-07-22T04:17:23;9.86;;;3.64;;
15502;SDS011;7853;52.186;5.948;2022-07-22T04:18:23;7.56;;;3.38;;
15502;SDS011;7853;52.186;5.948;2022-07-22T04:19:23;8.23;;;3.41;;
15502;SDS011;7853;52.186;5.948;2022-07-22T04:20:23;9.48;;;3.60;;
15502;SDS011;7853;52.186;5.948;2022-07-22T04:21:23;8.61;;;3.57;;
15502;SDS011;7853;52.186;5.948;2022-07-22T04:22:23;7.65;;;3.58;;
15502;SDS011;7853;52.186;5.948;2022-07-22T04:23:23;8.32;;;3.72;;
15502;SDS011;7853;52.186;5.948;2022-07-22T04:24:23;9.19;;;4.08;;
15502;SDS011;7853;52.186;5.948;2022-07-22T04:25:23;9.42;;;3.55;;
15502;SDS011;7853;52.186;5.948;2022-07-22T04:26:23;8.59;;;3.47;;
15502;SDS011;7853;52.186;5.948;2022-07-22T04:27:23;7.71;;;3.51;;
15502;SDS011;7853;52.186;5.948;2022-07-22T04:28:23;10.66;;;3.72;;
15502;SDS011;7853;52.186;5.948;2022-07-22T04:29:23;9.15;;;3.51;;
15502;SDS011;7853;52.186;5.948;2022-07-22T04:30:24;9.12;;;3.32;;
15502;SDS011;7853;52.186;5.948;2022-07-22T04:31:24;11.21;;;3.41;;
15502;SDS011;7853;52.186;5.948;2022-07-22T04:32:24;8.62;;;3.32;;
15502;SDS011;7853;52.186;5.948;2022-07-22T04:33:24;9.12;;;3.51;;
15502;SDS011;7853;52.186;5.948;2022-07-22T04:34:24;10.26;;;3.19;;
15502;SDS011;7853;52.186;5.948;2022-07-22T04:35:24;6.78;;;3.22;;
15502;SDS011;7853;52.186;5.948;2022-07-22T04:36:24;10.24;;;3.16;;
15502;SDS011;7853;52.186;5.948;2022-07-22T04:37:24;9.87;;;3.57;;
15502;SDS011;7853;52.186;5.948;2022-07-22T04:38:24;7.04;;;3.15;;
15502;SDS011;7853;52.186;5.948;2022-07-22T04:39:24;11.51;;;3.82;;
15502;SDS011;7853;52.186;5.948;2022-07-22T04:40:24;7.33;;;3.31;;
15502;SDS011;7853;52.186;5.948;2022-07-22T04:41:24;5.92;;;3.18;;
15502;SDS011;7853;52.186;5.948;2022-07-22T04:42:24;8.08;;;3.25;;
15502;SDS011;7853;52.186;5.948;2022-07-22T04:43:24;8.72;;;3.07;;
15502;SDS011;7853;52.186;5.948;2022-07-22T04:44:24;6.62;;;3.02;;
15502;SDS011;7853;52.186;5.948;2022-07-22T04:45:24;8.84;;;3.14;;
15502;SDS011;7853;52.186;5.948;2022-07-22T04:46:24;7.06;;;3.40;;
15502;SDS011;7853;52.186;5.948;2022-07-22T04:48:18;5.62;;;3.01;;
15502;SDS011;7853;52.186;5.948;2022-07-22T04:49:18;8.09;;;3.78;;
15502;SDS011;7853;52.186;5.948;2022-07-22T04:50:19;8.95;;;3.19;;
15502;SDS011;7853;52.186;5.948;2022-07-22T04:52:52;8.51;;;3.05;;
15502;SDS011;7853;52.186;5.948;2022-07-22T04:53:52;8.28;;;2.97;;
15502;SDS011;7853;52.186;5.948;2022-07-22T04:54:52;7.51;;;2.84;;
15502;SDS011;7853;52.186;5.948;2022-07-22T04:55:52;7.47;;;2.74;;
15502;SDS011;7853;52.186;5.948;2022-07-22T04:56:52;10.42;;;3.29;;
15502;SDS011;7853;52.186;5.948;2022-07-22T04:57:52;7.15;;;2.99;;
15502;SDS011;7853;52.186;5.948;2022-07-22T04:58:52;8.25;;;2.99;;
15502;SDS011;7853;52.186;5.948;2022-07-22T04:59:52;7.00;;;2.89;;
15502;SDS011;7853;52.186;5.948;2022-07-22T05:00:52;8.01;;;2.85;;
15502;SDS011;7853;52.186;5.948;2022-07-22T05:01:52;6.72;;;2.59;;
15502;SDS011;7853;52.186;5.948;2022-07-22T05:02:52;8.82;;;3.03;;
15502;SDS011;7853;52.186;5.948;2022-07-22T05:03:52;8.03;;;2.88;;
15502;SDS011;7853;52.186;5.948;2022-07-22T05:04:52;7.93;;;3.03;;
15502;SDS011;7853;52.186;5.948;2022-07-22T05:05:52;5.50;;;2.49;;
15502;SDS011;7853;52.186;5.948;2022-07-22T05:06:53;8.50;;;3.03;;
15502;SDS011;7853;52.186;5.948;2022-07-22T05:07:53;13.06;;;3.23;;
15502;SDS011;7853;52.186;5.948;2022-07-22T05:08:53;7.96;;;3.68;;
15502;SDS011;7853;52.186;5.948;2022-07-22T05:09:53;10.53;;;3.61;;
15502;SDS011;7853;52.186;5.948;2022-07-22T05:10:53;8.22;;;3.28;;
15502;SDS011;7853;52.186;5.948;2022-07-22T05:11:53;6.90;;;2.82;;
15502;SDS011;7853;52.186;5.948;2022-07-22T05:12:53;10.04;;;3.21;;
15502;SDS011;7853;52.186;5.948;2022-07-22T05:13:53;6.67;;;2.53;;
15502;SDS011;7853;52.186;5.948;2022-07-22T05:14:53;8.04;;;2.95;;
15502;SDS011;7853;52.186;5.948;2022-07-22T05:15:53;6.14;;;2.67;;
15502;SDS011;7853;52.186;5.948;2022-07-22T05:16:53;10.58;;;3.19;;
15502;SDS011;7853;52.186;5.948;2022-07-22T05:17:53;7.55;;;2.60;;
15502;SDS011;7853;52.186;5.948;2022-07-22T05:18:53;7.25;;;2.90;;
15502;SDS011;7853;52.186;5.948;2022-07-22T05:19:53;7.25;;;2.46;;
15502;SDS011;7853;52.186;5.948;2022-07-22T05:20:53;9.97;;;3.09;;
15502;SDS011;7853;52.186;5.948;2022-07-22T05:21:53;7.94;;;2.96;;
15502;SDS011;7853;52.186;5.948;2022-07-22T05:22:53;8.63;;;2.95;;
15502;SDS011;7853;52.186;5.948;2022-07-22T05:23:53;5.48;;;2.72;;
15502;SDS011;7853;52.186;5.948;2022-07-22T05:24:53;5.72;;;2.62;;
15502;SDS011;7853;52.186;5.948;2022-07-22T05:25:54;8.04;;;2.90;;
15502;SDS011;7853;52.186;5.948;2022-07-22T05:26:54;7.18;;;3.08;;
15502;SDS011;7853;52.186;5.948;2022-07-22T05:27:54;9.09;;;2.88;;
15502;SDS011;7853;52.186;5.948;2022-07-22T05:28:54;6.02;;;2.63;;
15502;SDS011;7853;52.186;5.948;2022-07-22T05:29:54;7.81;;;2.71;;
15502;SDS011;7853;52.186;5.948;2022-07-22T05:30:54;6.52;;;2.56;;
15502;SDS011;7853;52.186;5.948;2022-07-22T05:31:54;11.15;;;3.29;;
15502;SDS011;7853;52.186;5.948;2022-07-22T05:32:54;7.89;;;2.79;;
15502;SDS011;7853;52.186;5.948;2022-07-22T05:33:54;7.92;;;2.65;;
15502;SDS011;7853;52.186;5.948;2022-07-22T05:34:54;7.96;;;2.85;;
15502;SDS011;7853;52.186;5.948;2022-07-22T05:35:54;6.40;;;2.72;;
15502;SDS011;7853;52.186;5.948;2022-07-22T05:36:54;8.02;;;3.10;;
15502;SDS011;7853;52.186;5.948;2022-07-22T05:37:54;6.62;;;2.69;;
15502;SDS011;7853;52.186;5.948;2022-07-22T05:38:54;7.33;;;3.04;;
15502;SDS011;7853;52.186;5.948;2022-07-22T05:39:54;5.70;;;2.92;;
15502;SDS011;7853;52.186;5.948;2022-07-22T05:40:54;8.72;;;2.96;;
15502;SDS011;7853;52.186;5.948;2022-07-22T05:41:54;9.11;;;3.39;;
15502;SDS011;7853;52.186;5.948;2022-07-22T05:42:54;7.12;;;3.00;;
15502;SDS011;7853;52.186;5.948;2022-07-22T05:43:54;6.56;;;2.72;;
15502;SDS011;7853;52.186;5.948;2022-07-22T05:44:54;5.83;;;2.66;;
15502;SDS011;7853;52.186;5.948;2022-07-22T05:45:54;8.02;;;2.82;;
15502;SDS011;7853;52.186;5.948;2022-07-22T05:46:55;4.33;;;2.58;;
15502;SDS011;7853;52.186;5.948;2022-07-22T05:47:55;10.06;;;2.80;;
15502;SDS011;7853;52.186;5.948;2022-07-22T05:48:55;6.07;;;2.68;;
15502;SDS011;7853;52.186;5.948;2022-07-22T05:49:55;9.16;;;3.17;;
15502;SDS011;7853;52.186;5.948;2022-07-22T05:50:55;7.54;;;2.91;;
15502;SDS011;7853;52.186;5.948;2022-07-22T05:51:55;6.98;;;2.86;;
15502;SDS011;7853;52.186;5.948;2022-07-22T05:52:55;5.71;;;2.92;;
15502;SDS011;7853;52.186;5.948;2022-07-22T05:53:55;6.78;;;2.78;;
15502;SDS011;7853;52.186;5.948;2022-07-22T05:54:55;7.44;;;3.09;;
15502;SDS011;7853;52.186;5.948;2022-07-22T05:55:55;7.38;;;3.20;;
15502;SDS011;7853;52.186;5.948;2022-07-22T05:56:55;6.04;;;2.78;;
15502;SDS011;7853;52.186;5.948;2022-07-22T05:57:56;6.15;;;2.71;;
15502;SDS011;7853;52.186;5.948;2022-07-22T05:58:55;5.28;;;2.78;;
15502;SDS011;7853;52.186;5.948;2022-07-22T05:59:55;8.59;;;2.68;;
15502;SDS011;7853;52.186;5.948;2022-07-22T06:00:55;4.22;;;2.74;;
15502;SDS011;7853;52.186;5.948;2022-07-22T06:01:55;5.34;;;2.56;;
15502;SDS011;7853;52.186;5.948;2022-07-22T06:02:55;5.27;;;2.61;;
15502;SDS011;7853;52.186;5.948;2022-07-22T06:03:55;7.12;;;2.98;;
15502;SDS011;7853;52.186;5.948;2022-07-22T06:04:56;5.36;;;2.49;;
15502;SDS011;7853;52.186;5.948;2022-07-22T06:05:56;5.24;;;2.57;;
15502;SDS011;7853;52.186;5.948;2022-07-22T06:06:56;8.56;;;2.75;;
15502;SDS011;7853;52.186;5.948;2022-07-22T06:07:56;7.21;;;2.84;;
15502;SDS011;7853;52.186;5.948;2022-07-22T06:08:56;7.31;;;2.56;;
15502;SDS011;7853;52.186;5.948;2022-07-22T06:09:56;9.49;;;2.94;;
15502;SDS011;7853;52.186;5.948;2022-07-22T06:10:56;8.97;;;2.60;;
15502;SDS011;7853;52.186;5.948;2022-07-22T06:11:56;8.64;;;3.09;;
15502;SDS011;7853;52.186;5.948;2022-07-22T06:12:56;7.49;;;2.92;;
15502;SDS011;7853;52.186;5.948;2022-07-22T06:13:56;5.89;;;2.48;;
15502;SDS011;7853;52.186;5.948;2022-07-22T06:14:56;5.83;;;2.55;;
15502;SDS011;7853;52.186;5.948;2022-07-22T06:15:56;7.01;;;2.60;;
15502;SDS011;7853;52.186;5.948;2022-07-22T06:16:56;11.58;;;2.94;;